Nearby METAR Reports

 

NZWN - Wellington Intl, New Zealand
Distance from station: E 68km
Updated: 18/11/2017 07:30
Overcast
Overcast
 Wind from SSE
Wind: SSE 31 km/h
Temperature: 13°C
Dew Point: 8°C
Humidity: 72%
Barometer: 1024 hPa
Clouds: Overcast
Visibility: 10 km
Cloud details: Mostly cloudy 1006 m
Overcast 1341 m
2017/11/17 18:30 NZWN 171830Z AUTO 15017KT 9999 BKN033/// OVC044/// 13/08 Q1024 NOSIG
NZCH - Christchurch Int, New Zealand
Distance from station: SSW 269km
Updated: 18/11/2017 07:30
Overcast
Overcast
 Wind from WSW
Wind: WSW 4 km/h
Temperature: 11°C
Dew Point: 8°C
Humidity: 82%
Barometer: 1026 hPa
Clouds: Overcast
Visibility: 10 km
Cloud details: Overcast 1067 m
2017/11/17 18:30 NZCH 171830Z AUTO 24002KT 9999 OVC035/// 11/08 Q1026 NOSIG
 
NZAA - Auckland Intl Ar, New Zealand
Distance from station: N 480km
Updated: 18/11/2017 07:30
Clear
Clear
 Wind from SE
Wind: SE 24 km/h
Temperature: 15°C
Dew Point: 9°C
Humidity: 68%
Barometer: 1015 hPa
Clouds: Clear
Visibility: 10 km
2017/11/17 18:30 NZAA 171830Z AUTO 13013KT 9999 NCD 15/09 Q1015 NOSIG